WXcenter Banner NOAA Logo links to NOAA website FRD Logo links to FRD website

NOAA INL CURRENT OBSERVATIONS


NOAA AIR RESOURCES LABORATORY
MESONET WEATHER CONDITIONS FOR 14-Nov-18

Towers located at INL Facilities:

                      Time  Dir/Spd  Temp  WC  RH  Pres.
Location              MST   deg/mph   (F)  (F)  %  In.Hg

ATR                  19:35   37/  6    27  20  46  25.38
CFA                  19:35   24/  3    25  21  48  25.34
CIT                  19:35   74/  9    --  --  --  25.36
INTEC                19:35   45/  7    25  17  46  25.36
MFC                  19:35   75/  8    27  19  55  25.13
NRF                  19:35   42/  3    29  25  43  25.42
RWMC                 19:35   48/  6    27  20  48  25.25
SMC                  19:35  343/  8    24  15  52  25.46

Other towers located inside the INL:

                      Time  Dir/Spd  Temp  WC  RH  Pres.
Location              MST   deg/mph   (F)  (F)  %  In.Hg

Base of Howe Peak    19:35  318/  5    26  20  52  25.37
Deadman Canyon       19:35   27/  8    31  24  41  25.16
Lost River           19:35   38/  5    30  25  45  25.29
Rover                19:35   43/  3    33  33  43  25.26
Sand Dunes           19:30   18/  6    23  16  53  25.45

Towers located outside the INL:

                      Time  Dir/Spd  Temp  WC  RH  Pres.
Location              MST   deg/mph   (F)  (F)  %  In.Hg

Aberdeen             19:35  313/  5    28  23  54  25.83
Arco                 19:35  268/  2    24  24  63
Atomic City          19:35   40/  2    23  23  56  25.25
Blackfoot            19:35  164/ 10    38  32  39  25.75
Blue Dome            19:35  329/ 13    25  13  51
Cox's Well           19:35   17/  9    32  25  40
Craters of the Moon  19:35   10/  7    35  30  34  24.37
Dubois               19:35   29/ 12    29  18  48  24.85
Fort Hall            19:35   90/  3    27  22  57  25.78
Hamer                19:35    7/  7    23  15  53
Howe                 19:35  315/ 12    23  12  56
Idaho Falls (REC)    19:35  347/  4    32  28  49  25.55
Kettle Butte         19:35   28/  8    36  30  36  25.09
Minidoka             19:35  151/  5    34  29  49  25.94
Monteview            19:35   18/  7    21  12  67  25.48
Richfield            19:35  277/  3    35  33  43  25.89
Roberts              19:35   40/  3    26  26  57
Sugar City           19:35   51/  8    25  16  63  25.37
Taber                19:35   43/  5    23  17  61
Terreton             19:35  340/  0    27  27  58  25.48

Updated every 5 minutes. Unreviewed data; maintenance may cause some errors.
Current conditions: 526-8884   Info: 526-2744
            

This page automatically refreshes every 5 minutes.


Modified: March 1, 2011
Dept. of Commerce |  NOAA |  NOAA Research |  ARL |  FRD Privacy |  Disclaimer |  Information Quality |  webmaster